Time;durP1;ratioP1;P1;durP2;ratioP2;P2;SDS_P1;SDS_P2;PMS_P1;PMS_P2;Temp;Humidity;BMP_temperature;BMP_pressure;BME280_temperature;BME280_humidity;BME280_pressure;Samples;Min_cycle;Max_cycle;Signal;HPM_P1;HPM_P2
2021/08/11 00:00:09;;;;;;;3.85;3.15;;;21.90;65.50;;;;;;3146596;28;20059;-76
2021/08/11 00:01:40;;;;;;;;;;;21.90;65.40;;;;;;3145381;28;20044;-75
2021/08/11 00:03:12;;;;;;;5.03;2.95;;;21.90;65.40;;;;;;3134868;28;19931;-75
2021/08/11 00:04:44;;;;;;;3.95;2.88;;;21.90;65.50;;;;;;3134615;28;20111;-75
2021/08/11 00:06:16;;;;;;;3.80;2.75;;;21.90;65.50;;;;;;3135107;28;20413;-75
2021/08/11 00:07:49;;;;;;;4.05;3.05;;;21.90;65.50;;;;;;3134841;28;20183;-75
2021/08/11 00:09:20;;;;;;;3.55;2.90;;;21.90;65.50;;;;;;3134631;28;20047;-75
2021/08/11 00:10:53;;;;;;;3.08;2.78;;;21.90;65.40;;;;;;3142917;28;20064;-75
2021/08/11 00:12:25;;;;;;;4.03;2.90;;;21.90;65.40;;;;;;3134845;28;20045;-74
2021/08/11 00:13:57;;;;;;;4.88;2.80;;;21.90;65.50;;;;;;3134984;28;20410;-75
2021/08/11 00:15:28;;;;;;;3.38;2.80;;;21.90;65.60;;;;;;3134039;28;20103;-75
2021/08/11 00:17:00;;;;;;;6.55;2.83;;;21.90;65.60;;;;;;3134745;28;20044;-75
2021/08/11 00:18:32;;;;;;;3.22;2.90;;;21.80;65.50;;;;;;3134836;28;20063;-75
2021/08/11 00:20:04;;;;;;;3.50;2.80;;;21.90;65.50;;;;;;3145193;28;20432;-75
2021/08/11 00:21:36;;;;;;;4.10;3.05;;;21.90;65.50;;;;;;3147043;28;20436;-74
2021/08/11 00:23:08;;;;;;;4.15;2.83;;;21.80;65.50;;;;;;3146298;28;20075;-75
2021/08/11 00:24:39;;;;;;;3.13;2.83;;;21.80;65.50;;;;;;3146688;28;20053;-75
2021/08/11 00:26:12;;;;;;;3.10;2.80;;;21.80;65.60;;;;;;3147221;28;20048;-75
2021/08/11 00:27:44;;;;;;;3.55;2.50;;;21.80;65.60;;;;;;3147470;28;20060;-75
2021/08/11 00:29:16;;;;;;;3.13;2.60;;;21.80;65.60;;;;;;3146816;28;20059;-75
2021/08/11 00:30:47;;;;;;;4.63;3.10;;;21.80;65.60;;;;;;3145956;28;20045;-75
2021/08/11 00:32:19;;;;;;;3.33;2.70;;;21.80;65.70;;;;;;3146890;28;20060;-75
2021/08/11 00:33:51;;;;;;;5.63;2.80;;;21.80;65.60;;;;;;3147167;28;20055;-75
2021/08/11 00:35:22;;;;;;;3.38;2.83;;;21.80;65.60;;;;;;3146521;28;20053;-75
2021/08/11 00:36:54;;;;;;;2.88;2.50;;;21.80;65.60;;;;;;3140286;28;20470;-75
2021/08/11 00:38:26;;;;;;;2.90;2.33;;;21.80;65.60;;;;;;3134873;28;20445;-75
2021/08/11 00:39:59;;;;;;;3.50;2.90;;;21.80;65.60;;;;;;3137507;28;20055;-75
2021/08/11 00:41:32;;;;;;;;;;;21.80;65.50;;;;;;3147020;28;20048;-75
2021/08/11 00:43:05;;;;;;;4.15;2.80;;;21.80;65.40;;;;;;3147025;28;19931;-75
2021/08/11 00:44:37;;;;;;;3.17;2.80;;;21.80;65.30;;;;;;3146771;28;20138;-75
2021/08/11 00:46:09;;;;;;;4.22;2.70;;;21.80;65.30;;;;;;3146190;28;20040;-75
2021/08/11 00:47:41;;;;;;;3.67;2.92;;;21.80;65.40;;;;;;3146998;28;20513;-75
2021/08/11 00:49:15;;;;;;;4.68;2.53;;;21.80;65.50;;;;;;3146512;28;20056;-76
2021/08/11 00:50:47;;;;;;;3.72;2.80;;;21.80;65.40;;;;;;3146405;28;20045;-75
2021/08/11 00:52:18;;;;;;;3.97;2.70;;;21.80;65.50;;;;;;3146750;28;20049;-75
2021/08/11 00:53:49;;;;;;;3.70;2.47;;;21.80;65.50;;;;;;3146883;28;20401;-75
2021/08/11 00:55:21;;;;;;;2.55;2.33;;;21.70;65.50;;;;;;3146177;28;20040;-75
2021/08/11 00:56:54;;;;;;;2.80;2.47;;;21.70;65.50;;;;;;3147113;28;20056;-75
2021/08/11 00:58:26;;;;;;;3.00;2.40;;;21.80;65.60;;;;;;3146948;28;20045;-75
2021/08/11 00:59:58;;;;;;;2.70;2.40;;;21.70;65.60;;;;;;3146335;28;20049;-75
2021/08/11 01:01:29;;;;;;;3.97;2.40;;;21.80;65.60;;;;;;3145781;28;20094;-74
2021/08/11 01:03:01;;;;;;;2.70;2.30;;;21.70;65.50;;;;;;3146939;28;20044;-75
2021/08/11 01:04:33;;;;;;;2.60;2.20;;;21.70;65.60;;;;;;3145938;28;20072;-75
2021/08/11 01:06:06;;;;;;;3.25;2.50;;;21.70;66.30;;;;;;3143134;28;20052;-75
2021/08/11 01:07:37;;;;;;;5.47;2.55;;;21.70;65.60;;;;;;3134384;28;20127;-75
2021/08/11 01:09:09;;;;;;;5.18;3.17;;;21.70;65.60;;;;;;3136760;28;20067;-75
2021/08/11 01:10:41;;;;;;;4.20;2.50;;;21.70;65.50;;;;;;3140382;28;20044;-75
2021/08/11 01:12:14;;;;;;;3.92;2.50;;;21.70;65.40;;;;;;3135839;28;20057;-75
2021/08/11 01:13:46;;;;;;;3.58;2.83;;;21.70;65.40;;;;;;3134423;28;20405;-75
2021/08/11 01:15:17;;;;;;;3.53;2.33;;;21.70;65.50;;;;;;3132678;28;20049;-76
2021/08/11 01:16:49;;;;;;;3.55;2.60;;;21.70;65.40;;;;;;3134188;28;20052;-75
2021/08/11 01:18:21;;;;;;;2.95;2.40;;;21.70;65.40;;;;;;3134478;28;20053;-75
2021/08/11 01:19:52;;;;;;;4.00;2.90;;;21.70;65.40;;;;;;3133679;28;20051;-75
2021/08/11 01:21:27;;;;;;;4.25;2.80;;;21.70;65.40;;;;;;3139936;28;20486;-75
2021/08/11 01:23:01;;;;;;;4.22;2.67;;;21.70;65.40;;;;;;3133984;28;20057;-75
2021/08/11 01:24:36;;;;;;;3.42;2.72;;;21.70;65.40;;;;;;3143524;28;20048;-75
2021/08/11 01:26:11;;;;;;;3.40;3.03;;;21.70;66.10;;;;;;3147023;28;20048;-75
2021/08/11 01:28:03;;;;;;;3.08;2.60;;;21.70;65.40;;;;;;3146441;28;20508;-75
2021/08/11 01:29:44;;;;;;;3.92;2.60;;;21.70;65.40;;;;;;3146221;28;20049;-75
2021/08/11 01:31:16;;;;;;;5.32;3.05;;;21.70;65.40;;;;;;3145111;28;20048;-75
2021/08/11 01:33:02;;;;;;;2.90;2.60;;;21.70;65.40;;;;;;3146401;28;20052;-75
2021/08/11 01:34:36;;;;;;;3.33;2.42;;;21.70;65.40;;;;;;3145146;28;20048;-75
2021/08/11 01:36:14;;;;;;;3.55;2.72;;;21.70;65.30;;;;;;3146376;28;20048;-75
2021/08/11 01:37:46;;;;;;;3.63;2.70;;;21.70;65.40;;;;;;3146029;28;20151;-75
2021/08/11 01:39:27;;;;;;;2.90;2.55;;;21.70;65.40;;;;;;3145785;28;20044;-75
2021/08/11 01:41:01;;;;;;;3.92;2.95;;;21.60;65.30;;;;;;3144397;28;20056;-75
2021/08/11 01:42:36;;;;;;;5.35;2.58;;;21.60;65.30;;;;;;3146287;28;20041;-75
2021/08/11 01:44:08;;;;;;;2.70;2.50;;;21.70;65.40;;;;;;3145763;28;20477;-76
2021/08/11 01:45:42;;;;;;;5.13;2.58;;;21.70;65.30;;;;;;3145568;28;20056;-75
2021/08/11 01:47:14;;;;;;;3.35;2.67;;;21.70;65.20;;;;;;3146641;28;20063;-75
2021/08/11 01:48:46;;;;;;;5.07;2.80;;;21.70;65.10;;;;;;3146387;28;20433;-75
2021/08/11 01:50:20;;;;;;;3.85;2.65;;;21.60;65.00;;;;;;3145639;28;20052;-75
2021/08/11 01:51:52;;;;;;;2.85;2.60;;;21.60;65.10;;;;;;3146266;28;20052;-75
2021/08/11 01:53:25;;;;;;;6.30;3.00;;;21.70;65.10;;;;;;3146341;28;20053;-75
2021/08/11 01:54:57;;;;;;;4.15;2.95;;;21.60;65.00;;;;;;3144954;28;20040;-75
2021/08/11 01:56:28;;;;;;;3.10;2.80;;;21.60;64.90;;;;;;3146435;28;20069;-75
2021/08/11 01:58:00;;;;;;;4.18;2.95;;;21.60;64.90;;;;;;3146203;28;20055;-75
2021/08/11 01:59:32;;;;;;;3.40;2.90;;;21.60;64.90;;;;;;3146197;28;20352;-75
2021/08/11 02:01:06;;;;;;;4.05;3.08;;;21.60;64.90;;;;;;3145021;28;20421;-75
2021/08/11 02:02:38;;;;;;;5.72;3.00;;;21.60;64.80;;;;;;3146243;28;20048;-75
2021/08/11 02:04:09;;;;;;;3.92;2.97;;;21.60;64.80;;;;;;3143763;28;20048;-76
2021/08/11 02:05:42;;;;;;;5.28;2.75;;;21.60;64.90;;;;;;3146502;28;20437;-74
2021/08/11 02:07:14;;;;;;;4.10;2.80;;;21.60;64.90;;;;;;3146103;28;20052;-75
2021/08/11 02:08:46;;;;;;;3.97;2.92;;;21.60;64.80;;;;;;3146139;28;20056;-75
2021/08/11 02:10:18;;;;;;;4.05;2.58;;;21.60;65.60;;;;;;3136396;28;20049;-75
2021/08/11 02:11:49;;;;;;;2.95;2.63;;;21.60;64.90;;;;;;3146181;28;20049;-75
2021/08/11 02:13:20;;;;;;;3.28;2.55;;;21.60;64.90;;;;;;3146277;28;20055;-75
2021/08/11 02:14:52;;;;;;;3.42;2.92;;;21.60;64.80;;;;;;3145927;28;20071;-75
2021/08/11 02:16:23;;;;;;;4.57;2.88;;;21.60;64.80;;;;;;3145716;28;20060;-75
2021/08/11 02:17:55;;;;;;;3.25;2.67;;;21.60;64.80;;;;;;3146063;28;20130;-75
2021/08/11 02:19:27;;;;;;;4.93;3.13;;;21.60;64.80;;;;;;3145546;28;20053;-75
2021/08/11 02:21:00;;;;;;;6.20;3.15;;;21.60;64.70;;;;;;3141147;28;20049;-75
2021/08/11 02:22:31;;;;;;;3.42;3.00;;;21.60;64.70;;;;;;3133538;28;20067;-75
2021/08/11 02:24:03;;;;;;;4.45;3.25;;;21.60;64.60;;;;;;3138867;28;20349;-75
2021/08/11 02:25:35;;;;;;;3.30;2.90;;;21.50;64.60;;;;;;3145687;28;20044;-75
2021/08/11 02:27:09;;;;;;;4.90;3.08;;;21.60;64.70;;;;;;3145601;28;20048;-75
2021/08/11 02:28:46;;;;;;;3.88;2.78;;;21.60;64.60;;;;;;3146028;28;20055;-75
2021/08/11 02:30:19;;;;;;;4.10;2.90;;;21.60;64.60;;;;;;3143943;28;20061;-75
2021/08/11 02:31:55;;;;;;;3.67;3.15;;;21.60;64.50;;;;;;3146237;28;20504;-75
2021/08/11 02:33:29;;;;;;;3.40;3.10;;;21.60;64.50;;;;;;3145969;28;20048;-75
2021/08/11 02:35:02;;;;;;;4.53;3.17;;;21.60;64.40;;;;;;3145465;28;20055;-75
2021/08/11 02:36:43;;;;;;;3.63;2.83;;;21.50;64.40;;;;;;3146376;28;20055;-75
2021/08/11 02:38:17;;;;;;;3.60;2.78;;;21.50;64.50;;;;;;3144284;28;20052;-75
2021/08/11 02:39:51;;;;;;;4.65;3.17;;;21.60;64.50;;;;;;3134539;28;20494;-75
2021/08/11 02:41:24;;;;;;;4.32;2.70;;;21.60;64.50;;;;;;3145638;28;20052;-75
2021/08/11 02:42:59;;;;;;;3.85;2.90;;;21.60;64.50;;;;;;3145852;28;20048;-75
2021/08/11 02:44:33;;;;;;;4.65;2.95;;;21.60;64.50;;;;;;3144988;28;20052;-75
2021/08/11 02:46:06;;;;;;;4.68;2.60;;;21.50;64.40;;;;;;3146612;28;20052;-75
2021/08/11 02:47:38;;;;;;;4.28;3.00;;;21.50;64.40;;;;;;3148867;28;20162;-75
2021/08/11 02:49:14;;;;;;;3.53;2.57;;;21.50;64.40;;;;;;3148103;28;20055;-75
2021/08/11 02:50:46;;;;;;;4.00;2.83;;;21.50;64.50;;;;;;3148070;28;20295;-75
2021/08/11 02:52:19;;;;;;;3.10;2.60;;;21.50;64.50;;;;;;3148120;28;20057;-75
2021/08/11 02:53:50;;;;;;;3.22;2.72;;;21.50;64.50;;;;;;3148454;28;20048;-75
2021/08/11 02:55:22;;;;;;;3.83;2.70;;;21.50;64.50;;;;;;3139863;28;20045;-75
2021/08/11 02:56:54;;;;;;;5.22;2.55;;;21.50;64.50;;;;;;3135542;28;20049;-75
2021/08/11 02:58:26;;;;;;;3.03;2.70;;;21.50;64.50;;;;;;3136055;28;20076;-75
2021/08/11 02:59:57;;;;;;;4.05;2.35;;;21.50;64.50;;;;;;3135552;28;20049;-75
2021/08/11 03:01:29;;;;;;;3.53;2.80;;;21.50;64.50;;;;;;3134491;28;20053;-75
2021/08/11 03:03:01;;;;;;;4.90;2.80;;;21.50;64.50;;;;;;3135780;28;20049;-75
2021/08/11 03:04:32;;;;;;;3.20;2.78;;;21.50;64.50;;;;;;3135244;28;20502;-75
2021/08/11 03:06:04;;;;;;;3.08;2.70;;;21.50;64.50;;;;;;3136112;28;20052;-75
2021/08/11 03:07:39;;;;;;;4.13;2.63;;;21.50;64.50;;;;;;3135836;28;20725;-75
2021/08/11 03:09:10;;;;;;;3.67;2.80;;;21.50;64.50;;;;;;3140797;28;20048;-76
2021/08/11 03:10:42;;;;;;;6.68;3.15;;;21.50;64.50;;;;;;3148014;28;20504;-75
2021/08/11 03:12:14;;;;;;;2.85;2.50;;;21.50;64.50;;;;;;3146998;28;20056;-75
2021/08/11 03:13:45;;;;;;;3.67;2.60;;;21.50;64.50;;;;;;3135772;28;20052;-75
2021/08/11 03:15:17;;;;;;;6.57;2.85;;;21.50;64.50;;;;;;3134090;28;20045;-75
2021/08/11 03:16:49;;;;;;;4.30;3.03;;;21.50;64.50;;;;;;3135912;28;20053;-75
2021/08/11 03:18:20;;;;;;;3.00;2.70;;;21.50;64.50;;;;;;3135863;28;20075;-75
2021/08/11 03:19:52;;;;;;;4.57;2.88;;;21.50;64.50;;;;;;3135212;28;20501;-75
2021/08/11 03:21:23;;;;;;;3.60;2.60;;;21.50;64.60;;;;;;3145581;28;20052;-75
2021/08/11 03:22:56;;;;;;;3.10;2.50;;;21.50;64.50;;;;;;3144710;28;20098;-75
2021/08/11 03:24:28;;;;;;;;;;;21.50;64.60;;;;;;3147958;28;20057;-75
2021/08/11 03:26:00;;;;;;;6.00;2.60;;;21.50;64.60;;;;;;3148175;28;20373;-75
2021/08/11 03:27:31;;;;;;;2.92;2.50;;;21.50;64.50;;;;;;3148162;28;20451;-75
2021/08/11 03:29:03;;;;;;;3.58;2.60;;;21.50;64.50;;;;;;3148234;28;20128;-75
2021/08/11 03:30:36;;;;;;;3.95;2.65;;;21.40;64.50;;;;;;3135926;28;20494;-75
2021/08/11 03:32:08;;;;;;;4.63;2.72;;;21.50;64.50;;;;;;3144062;28;20462;-75
2021/08/11 03:33:39;;;;;;;2.97;2.40;;;21.50;64.40;;;;;;3148190;28;20516;-75
2021/08/11 03:35:11;;;;;;;2.65;2.45;;;21.50;64.50;;;;;;3147723;28;20436;-75
2021/08/11 03:36:43;;;;;;;3.63;2.60;;;21.40;64.50;;;;;;3147980;28;20064;-75
2021/08/11 03:38:16;;;;;;;4.18;2.80;;;21.40;64.50;;;;;;3148145;28;20052;-75
2021/08/11 03:39:48;;;;;;;3.00;2.70;;;21.40;64.50;;;;;;3147579;28;20504;-75
2021/08/11 03:41:19;;;;;;;3.28;2.67;;;21.40;64.50;;;;;;3136021;28;20041;-75
2021/08/11 03:42:51;;;;;;;3.00;2.40;;;21.40;64.50;;;;;;3145583;28;20259;-75
2021/08/11 03:44:23;;;;;;;2.90;2.63;;;21.40;64.40;;;;;;3147215;28;20060;-75
2021/08/11 03:45:54;;;;;;;4.88;2.65;;;21.40;64.40;;;;;;3147392;28;20071;-75
2021/08/11 03:47:26;;;;;;;2.58;2.35;;;21.40;64.40;;;;;;3147759;28;20610;-75
2021/08/11 03:48:58;;;;;;;2.85;2.40;;;21.40;64.40;;;;;;3147929;28;20052;-75
2021/08/11 03:50:29;;;;;;;9.00;2.50;;;21.40;64.40;;;;;;3146891;28;20048;-75
2021/08/11 03:52:01;;;;;;;3.45;2.70;;;21.40;64.40;;;;;;3148039;28;20048;-75
2021/08/11 03:53:34;;;;;;;2.65;2.45;;;21.40;64.30;;;;;;3147772;28;20626;-75
2021/08/11 03:55:07;;;;;;;3.55;2.80;;;21.40;64.30;;;;;;3147222;28;20067;-75
2021/08/11 03:56:38;;;;;;;4.88;2.78;;;21.40;64.30;;;;;;3147767;28;20048;-75
2021/08/11 03:58:10;;;;;;;3.00;2.67;;;21.40;64.20;;;;;;3147510;28;20052;-75
2021/08/11 03:59:42;;;;;;;3.20;2.80;;;21.40;64.20;;;;;;3145597;28;20081;-75
2021/08/11 04:01:13;;;;;;;3.38;2.78;;;21.40;64.30;;;;;;3146656;28;20051;-75
2021/08/11 04:02:45;;;;;;;3.03;2.67;;;21.50;64.30;;;;;;3147896;28;20166;-75
2021/08/11 04:04:17;;;;;;;3.05;2.33;;;21.50;63.90;;;;;;3147507;28;20056;-75
2021/08/11 04:05:48;;;;;;;3.60;2.25;;;21.60;64.00;;;;;;3147631;28;20045;-75
2021/08/11 04:07:20;;;;;;;2.92;2.63;;;21.70;63.70;;;;;;3147607;28;20056;-75
2021/08/11 04:08:53;;;;;;;2.70;2.40;;;21.80;63.10;;;;;;3145010;28;20055;-75
2021/08/11 04:10:25;;;;;;;3.47;2.58;;;21.90;62.70;;;;;;3138637;28;20417;-75
2021/08/11 04:11:56;;;;;;;3.25;2.50;;;22.00;62.40;;;;;;3147394;28;20068;-75
2021/08/11 04:13:28;;;;;;;3.55;2.53;;;22.20;62.00;;;;;;3147755;28;20055;-75
2021/08/11 04:15:00;;;;;;;2.60;2.15;;;22.30;61.70;;;;;;3147127;28;20040;-75
2021/08/11 04:16:31;;;;;;;2.85;2.53;;;22.30;61.60;;;;;;3146645;28;20074;-75
2021/08/11 04:18:03;;;;;;;3.28;2.53;;;22.40;61.20;;;;;;3147546;28;20094;-75
2021/08/11 04:19:35;;;;;;;3.35;2.42;;;22.50;61.00;;;;;;3147240;28;20040;-75
2021/08/11 04:21:06;;;;;;;3.28;2.42;;;22.60;60.90;;;;;;3145629;28;20394;-75
2021/08/11 04:22:38;;;;;;;3.10;2.42;;;22.60;60.70;;;;;;3141027;28;20052;-75
2021/08/11 04:24:11;;;;;;;4.05;2.20;;;22.60;60.60;;;;;;3136519;28;20421;-76
2021/08/11 04:25:43;;;;;;;3.22;2.60;;;22.70;60.40;;;;;;3135096;28;20045;-75
2021/08/11 04:27:14;;;;;;;2.63;2.42;;;22.70;60.20;;;;;;3134844;28;20059;-75
2021/08/11 04:28:48;;;;;;;2.67;2.20;;;22.80;60.10;;;;;;3135153;28;20055;-75
2021/08/11 04:30:19;;;;;;;4.53;2.45;;;22.80;60.00;;;;;;3133468;28;20041;-75
2021/08/11 04:31:51;;;;;;;4.22;2.63;;;22.80;59.90;;;;;;3135264;28;20056;-75
2021/08/11 04:33:23;;;;;;;2.90;2.50;;;22.80;59.90;;;;;;3134866;28;20049;-76
2021/08/11 04:34:54;;;;;;;3.17;2.28;;;22.80;59.90;;;;;;3142095;28;20045;-75
2021/08/11 04:36:26;;;;;;;4.13;2.30;;;22.80;59.80;;;;;;3147612;28;20102;-75
2021/08/11 04:37:58;;;;;;;2.60;2.40;;;22.80;59.70;;;;;;3147351;28;20056;-75
2021/08/11 04:39:31;;;;;;;2.88;2.28;;;22.80;59.70;;;;;;3146706;28;20063;-75
2021/08/11 04:41:02;;;;;;;2.40;2.20;;;22.80;59.80;;;;;;3147047;28;20053;-75
2021/08/11 04:42:34;;;;;;;3.75;2.40;;;22.80;59.90;;;;;;3139486;28;20052;-75
2021/08/11 04:44:10;;;;;;;3.15;2.33;;;22.70;60.00;;;;;;3135122;28;20049;-75
2021/08/11 04:45:42;;;;;;;4.00;2.50;;;22.70;60.00;;;;;;3133764;28;20083;-75
2021/08/11 04:47:14;;;;;;;3.43;2.60;;;22.70;60.00;;;;;;3134853;28;20076;-75
2021/08/11 04:48:45;;;;;;;3.03;2.40;;;22.60;60.20;;;;;;3134925;28;20049;-75
2021/08/11 04:50:17;;;;;;;2.50;2.30;;;22.60;60.20;;;;;;3134102;28;20075;-75
2021/08/11 04:51:49;;;;;;;3.08;2.25;;;22.60;60.10;;;;;;3134977;28;20108;-75
2021/08/11 04:53:20;;;;;;;3.33;2.38;;;22.60;60.20;;;;;;3134735;28;20422;-75
2021/08/11 04:54:53;;;;;;;2.88;2.50;;;22.60;60.30;;;;;;3134397;28;20049;-75
2021/08/11 04:56:25;;;;;;;2.55;2.28;;;22.50;60.50;;;;;;3135036;28;20049;-75
2021/08/11 04:57:57;;;;;;;3.25;2.50;;;22.50;60.60;;;;;;3134583;28;20214;-75
2021/08/11 04:59:28;;;;;;;3.10;2.80;;;22.40;60.80;;;;;;3134327;28;20056;-75
2021/08/11 05:01:00;;;;;;;2.78;2.58;;;22.40;61.00;;;;;;3133588;28;20083;-75
2021/08/11 05:02:32;;;;;;;3.53;2.50;;;22.30;61.10;;;;;;3134459;28;20053;-75
2021/08/11 05:04:04;;;;;;;2.50;2.30;;;22.30;61.20;;;;;;3134767;28;20136;-75
2021/08/11 05:05:36;;;;;;;2.67;2.42;;;22.30;61.20;;;;;;3134128;28;20045;-75
2021/08/11 05:07:08;;;;;;;3.42;2.55;;;22.20;61.40;;;;;;3134714;28;20064;-75
2021/08/11 05:08:40;;;;;;;3.50;2.28;;;22.20;61.50;;;;;;3134303;28;20095;-75
2021/08/11 05:10:16;;;;;;;2.55;2.35;;;22.20;61.50;;;;;;3139678;28;20049;-75
2021/08/11 05:11:48;;;;;;;3.03;2.60;;;22.20;61.50;;;;;;3139550;28;20060;-75
2021/08/11 05:13:19;;;;;;;3.67;2.50;;;22.20;61.30;;;;;;3134777;28;20048;-75
2021/08/11 05:14:52;;;;;;;3.47;2.80;;;22.20;61.30;;;;;;3137383;28;20059;-75
2021/08/11 05:16:24;;;;;;;7.25;3.10;;;22.20;61.50;;;;;;3145393;28;20051;-75
2021/08/11 05:17:55;;;;;;;4.35;2.53;;;22.20;61.90;;;;;;3145048;28;20562;-75
2021/08/11 05:19:27;;;;;;;4.00;2.80;;;22.20;61.60;;;;;;3146569;28;22522;-75
2021/08/11 05:20:59;;;;;;;4.80;2.85;;;22.20;61.50;;;;;;3144860;28;20056;-75
2021/08/11 05:22:30;;;;;;;5.82;3.15;;;22.10;61.90;;;;;;3136412;28;20057;-75
2021/08/11 05:24:03;;;;;;;4.75;3.00;;;22.10;61.90;;;;;;3143195;28;20416;-75
2021/08/11 05:25:41;;;;;;;4.70;3.20;;;22.20;62.30;;;;;;3145611;28;20052;-75
2021/08/11 05:27:18;;;;;;;11.07;3.92;;;22.10;62.60;;;;;;3146561;28;20055;-75
2021/08/11 05:28:52;;;;;;;6.10;3.10;;;22.20;62.80;;;;;;3147117;28;20558;-75
2021/08/11 05:30:24;;;;;;;5.78;3.25;;;22.10;63.10;;;;;;3144939;28;20053;-76
2021/08/11 05:31:55;;;;;;;6.28;3.22;;;22.20;63.20;;;;;;3146678;28;20056;-76
2021/08/11 05:33:27;;;;;;;6.50;3.25;;;22.10;63.30;;;;;;3142098;28;20060;-76
2021/08/11 05:34:59;;;;;;;6.50;3.83;;;22.10;63.30;;;;;;3135541;28;20045;-76
2021/08/11 05:36:30;;;;;;;7.53;3.63;;;22.20;63.30;;;;;;3135420;28;20410;-76
2021/08/11 05:38:04;;;;;;;7.07;3.58;;;22.20;63.00;;;;;;3144383;28;20044;-75
2021/08/11 05:39:35;;;;;;;5.63;3.80;;;22.20;63.10;;;;;;3135209;28;20361;-76
2021/08/11 05:41:08;;;;;;;5.40;3.75;;;22.10;63.40;;;;;;3135711;28;20060;-76
2021/08/11 05:42:40;;;;;;;6.85;3.92;;;22.10;63.70;;;;;;3140567;28;20052;-76
2021/08/11 05:44:11;;;;;;;7.45;3.33;;;22.20;63.90;;;;;;3144144;28;20044;-76
2021/08/11 05:45:43;;;;;;;8.10;3.60;;;22.10;63.80;;;;;;3136724;28;20044;-76
2021/08/11 05:47:15;;;;;;;8.90;3.83;;;22.10;64.00;;;;;;3145894;28;20053;-76
2021/08/11 05:48:46;;;;;;;7.05;3.33;;;22.10;64.00;;;;;;3145499;28;20544;-76
2021/08/11 05:50:18;;;;;;;11.05;3.88;;;22.20;63.40;;;;;;3141995;28;20512;-76
2021/08/11 05:51:50;;;;;;;15.13;3.70;;;22.20;63.80;;;;;;3142154;28;20439;-76
2021/08/11 05:53:21;;;;;;;5.57;3.80;;;22.20;64.00;;;;;;3133602;28;20424;-76
2021/08/11 05:54:53;;;;;;;12.02;4.50;;;22.20;63.80;;;;;;3133580;28;20114;-76
2021/08/11 05:56:26;;;;;;;18.00;4.32;;;22.20;64.00;;;;;;3133510;28;20124;-76
2021/08/11 05:58:00;;;;;;;6.65;4.30;;;22.20;63.90;;;;;;3144743;28;20048;-76
2021/08/11 05:59:33;;;;;;;16.13;4.30;;;22.30;63.80;;;;;;3139169;28;20052;-76
2021/08/11 06:01:04;;;;;;;8.23;4.32;;;22.30;64.30;;;;;;3141007;28;20127;-76
2021/08/11 06:02:38;;;;;;;12.23;4.55;;;22.20;63.60;;;;;;3138701;28;20052;-76
2021/08/11 06:04:09;;;;;;;10.40;4.50;;;22.20;63.70;;;;;;3145329;28;20067;-75
2021/08/11 06:05:41;;;;;;;12.73;4.18;;;22.30;63.80;;;;;;3144619;28;20055;-75
2021/08/11 06:07:14;;;;;;;8.15;4.18;;;22.20;63.80;;;;;;3139239;28;20044;-76
2021/08/11 06:08:45;;;;;;;9.52;3.70;;;22.30;64.00;;;;;;3135440;28;20090;-76
2021/08/11 06:10:17;;;;;;;10.38;3.88;;;22.20;63.80;;;;;;3132933;28;20045;-76
2021/08/11 06:11:50;;;;;;;7.43;4.22;;;22.30;63.70;;;;;;3143230;28;20504;-76
2021/08/11 06:13:22;;;;;;;7.30;4.20;;;22.30;63.80;;;;;;3140684;28;20057;-76
2021/08/11 06:14:53;;;;;;;10.75;4.55;;;22.30;63.80;;;;;;3141350;28;20045;-76
2021/08/11 06:16:25;;;;;;;9.65;4.45;;;22.30;63.50;;;;;;3139173;28;20045;-76
2021/08/11 06:17:57;;;;;;;7.10;4.63;;;22.30;63.30;;;;;;3140724;28;20056;-76
2021/08/11 06:19:48;;;;;;;;;;;;;;;;;;;;;
2021/08/11 06:21:23;;;;;;;5.80;4.07;;;22.40;63.20;;;;;;3144799;28;20049;-76
2021/08/11 06:22:55;;;;;;;8.82;4.22;;;22.30;63.40;;;;;;3146863;28;20077;-76
2021/08/11 06:24:27;;;;;;;11.33;4.50;;;22.40;63.30;;;;;;3142848;28;20102;-75
2021/08/11 06:26:00;;;;;;;5.97;4.30;;;22.40;63.10;;;;;;3147769;28;20306;-76
2021/08/11 06:27:33;;;;;;;6.43;4.03;;;22.50;63.00;;;;;;3135742;28;20056;-76
2021/08/11 06:29:05;;;;;;;8.27;4.32;;;22.40;63.10;;;;;;3141193;28;20069;-75
2021/08/11 06:30:39;;;;;;;8.20;4.50;;;22.40;63.20;;;;;;3144772;28;20044;-76
2021/08/11 06:32:11;;;;;;;7.97;3.92;;;22.40;63.30;;;;;;3146848;28;20051;-76
2021/08/11 06:33:43;;;;;;;7.10;4.40;;;22.40;63.50;;;;;;3147480;28;20060;-76
2021/08/11 06:35:14;;;;;;;7.60;4.30;;;22.40;63.40;;;;;;3146668;28;20394;-76
2021/08/11 06:36:46;;;;;;;6.60;4.38;;;22.40;63.40;;;;;;3147786;28;20067;-76
2021/08/11 06:38:18;;;;;;;8.52;4.75;;;22.40;63.30;;;;;;3147039;28;20639;-76
2021/08/11 06:39:49;;;;;;;7.07;4.30;;;22.40;63.30;;;;;;3138775;28;20079;-76
2021/08/11 06:41:21;;;;;;;13.70;4.55;;;22.40;63.40;;;;;;3134010;28;20409;-76
2021/08/11 06:42:54;;;;;;;8.73;4.78;;;22.40;63.60;;;;;;3140151;28;20044;-76
2021/08/11 06:44:26;;;;;;;8.23;4.70;;;22.40;63.50;;;;;;3146544;28;20113;-76
2021/08/11 06:45:59;;;;;;;6.30;4.57;;;22.30;63.60;;;;;;3136798;28;20539;-76
2021/08/11 06:47:31;;;;;;;6.15;4.50;;;22.30;63.50;;;;;;3134690;28;20429;-76
2021/08/11 06:49:02;;;;;;;5.43;4.13;;;22.30;63.70;;;;;;3134864;28;20052;-76
2021/08/11 06:50:34;;;;;;;5.75;4.07;;;22.30;63.60;;;;;;3133643;28;20053;-75
2021/08/11 06:52:06;;;;;;;7.28;4.57;;;22.30;63.70;;;;;;3134715;28;20391;-75
2021/08/11 06:53:38;;;;;;;7.23;4.40;;;22.30;63.70;;;;;;3134531;28;20191;-76
2021/08/11 06:55:10;;;;;;;7.72;4.45;;;22.30;63.80;;;;;;3133983;28;20283;-76
2021/08/11 06:56:42;;;;;;;6.72;4.32;;;22.30;64.10;;;;;;3134388;28;20049;-76
2021/08/11 06:58:15;;;;;;;6.72;4.40;;;22.30;64.10;;;;;;3134643;28;20095;-76
2021/08/11 06:59:48;;;;;;;10.43;4.22;;;22.20;64.30;;;;;;3134237;28;20048;-76
2021/08/11 07:01:20;;;;;;;6.25;4.32;;;22.10;64.50;;;;;;3136274;28;20558;-76
2021/08/11 07:02:51;;;;;;;6.57;4.35;;;22.20;64.80;;;;;;3144343;28;20505;-76
2021/08/11 07:04:23;;;;;;;8.27;4.43;;;22.10;64.70;;;;;;3133910;28;20055;-75
2021/08/11 07:05:55;;;;;;;7.25;4.72;;;22.10;64.80;;;;;;3134678;28;20433;-76
2021/08/11 07:07:27;;;;;;;6.53;4.70;;;22.10;64.80;;;;;;3134066;28;20410;-75
2021/08/11 07:08:58;;;;;;;7.72;4.00;;;22.20;64.80;;;;;;3137658;28;20061;-76
2021/08/11 07:10:30;;;;;;;8.32;4.60;;;22.20;64.40;;;;;;3138474;28;20719;-75
2021/08/11 07:12:03;;;;;;;9.52;4.88;;;22.30;64.50;;;;;;3141198;28;20057;-76
2021/08/11 07:13:36;;;;;;;8.68;4.40;;;22.30;64.40;;;;;;3134931;28;20060;-76
2021/08/11 07:15:09;;;;;;;7.78;4.32;;;22.20;64.30;;;;;;3133620;28;20079;-76
2021/08/11 07:16:41;;;;;;;7.22;4.13;;;22.30;64.50;;;;;;3134368;28;20048;-76
2021/08/11 07:18:16;;;;;;;8.10;4.25;;;22.20;64.50;;;;;;3134370;28;20106;-75
2021/08/11 07:19:48;;;;;;;10.68;4.13;;;22.20;64.40;;;;;;3134741;28;20056;-76
2021/08/11 07:21:19;;;;;;;10.18;4.28;;;22.20;64.50;;;;;;3135241;28;20052;-76
2021/08/11 07:22:51;;;;;;;9.95;4.13;;;22.10;64.30;;;;;;3134416;28;20049;-75
2021/08/11 07:24:23;;;;;;;8.20;4.17;;;22.20;64.30;;;;;;3132559;28;20045;-75
2021/08/11 07:25:55;;;;;;;7.78;4.30;;;22.10;64.30;;;;;;3133908;28;20478;-76
2021/08/11 07:27:26;;;;;;;5.53;4.28;;;22.20;64.50;;;;;;3134222;28;20237;-76
2021/08/11 07:28:59;;;;;;;7.25;4.40;;;22.20;64.00;;;;;;3134278;28;20057;-76
2021/08/11 07:30:31;;;;;;;6.78;4.50;;;22.20;64.20;;;;;;3132665;28;20053;-76
2021/08/11 07:32:03;;;;;;;6.63;4.18;;;22.20;64.00;;;;;;3134275;28;20087;-76
2021/08/11 07:33:35;;;;;;;6.13;4.30;;;22.20;63.90;;;;;;3134005;28;20454;-76
2021/08/11 07:35:07;;;;;;;5.70;4.25;;;22.20;63.80;;;;;;3133999;28;20296;-75
2021/08/11 07:36:39;;;;;;;5.50;4.05;;;22.20;63.80;;;;;;3134327;28;20052;-76
2021/08/11 07:38:10;;;;;;;10.55;4.20;;;22.20;63.70;;;;;;3133711;28;20052;-75
2021/08/11 07:39:42;;;;;;;6.40;4.05;;;22.30;63.50;;;;;;3137126;28;20391;-76
2021/08/11 07:41:14;;;;;;;5.38;4.20;;;22.30;63.50;;;;;;3136632;28;20409;-76
2021/08/11 07:42:46;;;;;;;7.20;4.35;;;22.30;63.50;;;;;;3146737;28;20428;-76
2021/08/11 07:44:19;;;;;;;7.45;4.30;;;22.30;63.20;;;;;;3145764;28;20049;-76
2021/08/11 07:45:50;;;;;;;6.18;4.00;;;22.40;63.10;;;;;;3145519;28;20044;-76
2021/08/11 07:47:22;;;;;;;6.72;4.40;;;22.50;62.90;;;;;;3146645;28;20055;-75
2021/08/11 07:48:54;;;;;;;7.07;3.97;;;22.50;62.90;;;;;;3146649;28;20059;-76
2021/08/11 07:50:26;;;;;;;7.93;4.50;;;22.50;62.90;;;;;;3137662;28;20048;-76
2021/08/11 07:51:58;;;;;;;7.55;4.53;;;22.40;63.10;;;;;;3134222;28;20052;-76
2021/08/11 07:53:30;;;;;;;6.88;4.00;;;22.40;63.20;;;;;;3134246;28;20055;-76
2021/08/11 07:55:05;;;;;;;7.03;4.18;;;22.40;63.30;;;;;;3133419;28;20076;-76
2021/08/11 07:56:37;;;;;;;5.72;4.25;;;22.40;63.30;;;;;;3134045;28;20095;-76
2021/08/11 07:58:09;;;;;;;9.13;4.53;;;22.40;63.20;;;;;;3134258;28;20053;-76
2021/08/11 07:59:42;;;;;;;6.55;4.68;;;22.30;63.30;;;;;;3133618;28;20053;-76
2021/08/11 08:01:13;;;;;;;7.43;4.22;;;22.30;63.40;;;;;;3134764;28;20053;-76